Time;durP1;ratioP1;P1;durP2;ratioP2;P2;SDS_P1;SDS_P2;PMS_P1;PMS_P2;Temp;Humidity;BMP_temperature;BMP_pressure;BME280_temperature;BME280_humidity;BME280_pressure;Samples;Min_cycle;Max_cycle;Signal;HPM_P1;HPM_P2
2021/01/23 00:02:25;;;;;;;10.60;6.22;;;;;;;6.38;68.31;100242.75;1608223;89;21182;-66
2021/01/23 00:04:53;;;;;;;10.72;7.03;;;;;;;6.32;68.39;100250.58;1619739;88;21181;-65
2021/01/23 00:07:21;;;;;;;10.48;6.37;;;;;;;6.42;67.99;100235.78;1612921;88;21131;-66
2021/01/23 00:09:49;;;;;;;12.30;6.97;;;;;;;6.38;68.04;100234.91;1634134;88;21205;-65
2021/01/23 00:12:16;;;;;;;11.45;6.65;;;;;;;6.23;68.36;100236.16;1634157;86;21214;-65
2021/01/23 00:14:44;;;;;;;10.38;5.83;;;;;;;6.14;68.45;100242.69;1627886;88;21317;-65
2021/01/23 00:17:11;;;;;;;10.75;6.50;;;;;;;6.09;68.17;100239.63;1632229;88;21195;-65
2021/01/23 00:19:40;;;;;;;12.13;6.47;;;;;;;6.11;68.11;100233.08;1634529;88;21187;-65
2021/01/23 00:22:08;;;;;;;10.85;6.12;;;;;;;5.95;68.50;100238.23;1633763;88;21215;-66
2021/01/23 00:24:35;;;;;;;11.20;6.17;;;;;;;5.89;68.64;100238.20;1628662;88;21211;-65
2021/01/23 00:27:04;;;;;;;8.95;6.28;;;;;;;5.82;68.71;100233.81;1620265;86;21631;-65
2021/01/23 00:29:31;;;;;;;10.18;7.00;;;;;;;5.73;68.78;100232.45;1608443;89;21211;-65
2021/01/23 00:31:59;;;;;;;10.75;7.03;;;;;;;5.74;68.74;100234.20;1620634;88;21218;-66
2021/01/23 00:34:26;;;;;;;12.70;7.30;;;;;;;5.63;68.96;100240.67;1613362;88;21187;-65
2021/01/23 00:36:54;;;;;;;11.28;7.00;;;;;;;5.66;68.74;100242.86;1634067;88;21219;-66
2021/01/23 00:39:21;;;;;;;11.75;6.80;;;;;;;5.66;68.69;100237.63;1634108;88;21267;-66
2021/01/23 00:41:49;;;;;;;8.60;5.87;;;;;;;5.64;68.79;100228.91;1626957;88;21312;-65
2021/01/23 00:44:16;;;;;;;11.20;6.37;;;;;;;5.60;68.77;100230.20;1608195;88;21218;-65
2021/01/23 00:46:44;;;;;;;13.53;6.90;;;;;;;5.56;68.76;100218.86;1630729;88;21214;-65
2021/01/23 00:49:12;;;;;;;12.37;6.87;;;;;;;5.51;68.79;100218.84;1633482;88;21191;-65
2021/01/23 00:51:40;;;;;;;11.55;6.78;;;;;;;5.48;68.68;100221.44;1619873;88;21162;-66
2021/01/23 00:54:10;;;;;;;11.87;7.33;;;;;;;5.46;68.63;100215.78;1613822;88;21183;-65
2021/01/23 00:56:38;;;;;;;11.08;6.30;;;;;;;5.46;68.51;100217.08;1626977;88;21525;-65
2021/01/23 00:59:07;;;;;;;13.00;6.70;;;;;;;5.44;68.47;100213.59;1625003;88;21188;-65
2021/01/23 01:01:35;;;;;;;11.95;6.78;;;;;;;5.47;68.26;100216.22;1606126;87;21183;-65
2021/01/23 01:04:04;;;;;;;11.57;7.37;;;;;;;5.42;68.22;100208.78;1608979;88;21204;-65
2021/01/23 01:06:33;;;;;;;14.95;7.47;;;;;;;5.42;68.22;100208.78;1626803;88;21918;-65
2021/01/23 01:09:00;;;;;;;10.50;7.28;;;;;;;5.42;68.04;100214.01;1621503;88;21587;-65
2021/01/23 01:11:29;;;;;;;13.48;7.35;;;;;;;5.39;68.03;100203.09;1601407;90;21195;-65
2021/01/23 01:13:57;;;;;;;9.03;6.17;;;;;;;5.26;68.28;100198.23;1602946;88;21203;-65
2021/01/23 01:16:25;;;;;;;13.10;6.78;;;;;;;5.24;68.34;100203.02;1655800;85;21385;-65
2021/01/23 01:18:52;;;;;;;10.40;6.40;;;;;;;5.24;68.31;100196.05;1675149;85;21193;-66
2021/01/23 01:21:20;;;;;;;10.55;6.17;;;;;;;5.20;68.53;100196.47;1681027;85;21193;-64
2021/01/23 01:23:48;;;;;;;13.05;6.95;;;;;;;5.20;68.47;100192.97;1667366;85;21148;-64
2021/01/23 01:26:16;;;;;;;10.93;5.97;;;;;;;5.23;68.48;100188.22;1664678;85;21184;-65
2021/01/23 01:28:43;;;;;;;11.05;6.60;;;;;;;5.15;68.71;100192.06;1675122;85;21152;-66
2021/01/23 01:31:11;;;;;;;11.00;6.58;;;;;;;5.14;68.84;100190.31;1679403;85;21199;-65
2021/01/23 01:33:38;;;;;;;10.30;5.70;;;;;;;5.20;68.66;100196.89;1653952;86;21306;-66
2021/01/23 01:36:07;;;;;;;11.10;6.08;;;;;;;5.29;68.46;100196.95;1666783;85;21181;-65
2021/01/23 01:38:34;;;;;;;11.55;6.40;;;;;;;5.36;68.33;100196.13;1653734;87;21168;-65
2021/01/23 01:41:02;;;;;;;8.58;6.33;;;;;;;5.39;68.40;100180.91;1653659;86;21237;-65
2021/01/23 01:43:30;;;;;;;14.00;7.08;;;;;;;5.45;68.51;100181.40;1676455;85;21177;-66
2021/01/23 01:45:58;;;;;;;10.80;6.62;;;;;;;5.52;68.67;100179.23;1664191;85;21142;-65
2021/01/23 01:48:25;;;;;;;12.85;7.40;;;;;;;5.61;68.58;100179.73;1653609;87;21152;-65
2021/01/23 01:50:54;;;;;;;10.90;6.53;;;;;;;5.65;68.45;100174.97;1658111;85;21357;-66
2021/01/23 01:53:22;;;;;;;13.13;6.55;;;;;;;5.67;68.47;100170.62;1673487;85;21173;-65
2021/01/23 01:55:49;;;;;;;12.30;7.03;;;;;;;5.69;68.34;100169.31;1656021;85;21662;-66
2021/01/23 01:58:18;;;;;;;10.82;6.45;;;;;;;5.70;68.35;100169.75;1662096;86;21173;-65
2021/01/23 02:00:45;;;;;;;14.35;7.87;;;;;;;5.69;68.25;100170.20;1645546;86;21174;-65
2021/01/23 02:03:35;;;;;;;10.28;6.53;;;;;;;5.65;68.26;100166.69;1637581;86;21149;-65
2021/01/23 02:06:23;;;;;;;14.83;8.50;;;;;;;5.62;68.24;100173.20;1662167;85;21632;-67
2021/01/23 02:09:38;;;;;;;14.70;8.88;;;;;;;5.59;68.38;100174.48;1660364;86;21205;-66
2021/01/23 02:12:30;;;;;;;13.72;8.15;;;;;;;5.51;68.75;100173.60;1658907;86;21188;-65
2021/01/23 02:15:12;;;;;;;11.93;6.78;;;;;;;5.60;68.49;100177.98;1659602;86;21186;-65
2021/01/23 02:17:47;;;;;;;13.38;7.78;;;;;;;5.57;68.49;100181.89;1661892;86;21169;-65
2021/01/23 02:20:40;;;;;;;12.80;7.83;;;;;;;5.57;68.53;100188.41;1643586;85;21222;-65
2021/01/23 02:23:32;;;;;;;15.25;8.15;;;;;;;5.54;68.61;100195.78;1655826;86;21655;-66
2021/01/23 02:26:31;;;;;;;11.97;6.85;;;;;;;5.53;68.67;100194.48;1661999;86;21153;-65
2021/01/23 02:29:14;;;;;;;14.55;7.75;;;;;;;5.53;68.68;100195.79;1657956;86;21209;-65
2021/01/23 02:31:47;;;;;;;14.87;7.90;;;;;;;5.52;68.92;100200.12;1641069;86;21184;-65
2021/01/23 02:34:18;;;;;;;16.37;8.30;;;;;;;5.55;68.95;100201.45;1611932;86;21197;-66
2021/01/23 02:36:45;;;;;;;13.45;7.75;;;;;;;5.54;68.98;100200.14;1606242;89;21216;-65
2021/01/23 02:39:14;;;;;;;14.13;7.40;;;;;;;5.55;68.88;100200.59;1602249;89;21200;-66
2021/01/23 02:41:43;;;;;;;;;;;;;;;5.55;68.96;100203.20;1620710;87;21630;-65
2021/01/23 02:44:11;;;;;;;11.20;7.35;;;;;;;5.54;69.00;100193.17;1614124;88;20160;-65
2021/01/23 02:46:38;;;;;;;13.75;8.50;;;;;;;5.56;69.05;100189.28;1649734;86;21150;-65
2021/01/23 02:49:06;;;;;;;14.50;7.95;;;;;;;5.59;69.14;100192.77;1644213;86;21190;-65
2021/01/23 02:52:01;;;;;;;15.32;9.10;;;;;;;5.58;69.04;100187.55;1649122;86;21156;-65
2021/01/23 02:54:43;;;;;;;13.72;8.08;;;;;;;5.54;68.96;100186.64;1636239;87;21136;-65
2021/01/23 02:57:11;;;;;;;13.68;7.78;;;;;;;5.48;68.96;100187.94;1652567;86;21173;-65
2021/01/23 02:59:40;;;;;;;13.80;7.92;;;;;;;5.48;68.92;100190.55;1654723;86;21200;-65
2021/01/23 03:02:10;;;;;;;15.68;7.75;;;;;;;5.45;68.91;100186.63;1664417;86;21330;-65
2021/01/23 03:04:39;;;;;;;;;;;;;;;5.35;68.95;100194.39;1671691;86;21210;-65
2021/01/23 03:07:07;;;;;;;13.18;7.58;;;;;;;5.25;69.27;100193.02;1587655;89;20175;-65
2021/01/23 03:09:36;;;;;;;16.90;9.53;;;;;;;5.35;68.96;100198.30;1630717;88;21167;-65
2021/01/23 03:12:05;;;;;;;14.03;7.50;;;;;;;5.36;68.93;100200.47;1631863;87;21195;-66
2021/01/23 03:14:34;;;;;;;14.58;7.33;;;;;;;5.34;68.90;100191.75;1632331;88;21590;-66
2021/01/23 03:17:03;;;;;;;14.38;8.25;;;;;;;5.36;68.85;100187.00;1624163;88;22582;-65
2021/01/23 03:19:31;;;;;;;17.85;8.83;;;;;;;5.36;68.97;100187.00;1608579;88;21382;-65
2021/01/23 03:21:59;;;;;;;16.10;8.13;;;;;;;5.30;69.31;100183.05;1608163;89;21649;-65
2021/01/23 03:24:26;;;;;;;12.55;8.30;;;;;;;5.24;69.57;100176.92;1612452;88;21212;-65
2021/01/23 03:26:53;;;;;;;14.07;8.45;;;;;;;5.34;69.47;100168.27;1626577;88;21194;-65
2021/01/23 03:29:21;;;;;;;11.63;7.95;;;;;;;5.37;69.38;100170.89;1616159;87;21139;-65
2021/01/23 03:31:50;;;;;;;13.40;8.45;;;;;;;5.27;69.64;100171.28;1608478;89;21658;-66
2021/01/23 03:34:18;;;;;;;13.38;8.28;;;;;;;5.24;69.69;100177.78;1612229;88;21190;-65
2021/01/23 03:36:45;;;;;;;16.55;9.83;;;;;;;5.19;69.86;100176.46;1611212;88;21202;-65
2021/01/23 03:39:13;;;;;;;16.30;9.70;;;;;;;5.25;69.52;100173.45;1608239;88;21190;-66
2021/01/23 03:41:41;;;;;;;18.40;9.70;;;;;;;5.23;69.45;100175.18;1608568;89;21199;-65
2021/01/23 03:44:08;;;;;;;26.35;12.40;;;;;;;5.21;69.44;100174.73;1624899;88;21182;-65
2021/01/23 03:46:36;;;;;;;28.15;15.00;;;;;;;5.19;69.38;100175.16;1634207;87;21187;-66
2021/01/23 03:49:04;;;;;;;22.45;11.83;;;;;;;5.17;69.36;100169.47;1634169;88;21239;-65
2021/01/23 03:51:31;;;;;;;15.35;9.05;;;;;;;5.15;69.17;100168.17;1633496;88;21235;-65
2021/01/23 03:53:59;;;;;;;13.68;8.50;;;;;;;5.12;68.97;100167.26;1616099;88;21187;-65
2021/01/23 03:56:27;;;;;;;14.07;7.75;;;;;;;5.05;68.76;100170.27;1608448;89;21237;-66
2021/01/23 03:58:54;;;;;;;11.45;7.30;;;;;;;4.99;68.57;100171.52;1608333;89;21670;-65
2021/01/23 04:01:22;;;;;;;11.12;7.20;;;;;;;4.88;68.40;100171.00;1612382;88;21155;-65
2021/01/23 04:03:49;;;;;;;12.10;7.30;;;;;;;4.82;68.48;100179.22;1613619;88;21186;-65
2021/01/23 04:06:17;;;;;;;10.08;7.60;;;;;;;4.79;68.55;100189.21;1608448;89;21195;-64
2021/01/23 04:08:44;;;;;;;11.25;8.10;;;;;;;4.79;68.69;100187.91;1608139;89;21665;-65
2021/01/23 04:11:12;;;;;;;12.43;6.90;;;;;;;4.65;69.11;100193.42;1615603;88;21174;-65
2021/01/23 04:13:40;;;;;;;11.22;7.00;;;;;;;4.65;69.33;100200.80;1613126;89;21227;-64
2021/01/23 04:16:08;;;;;;;12.70;7.42;;;;;;;4.66;69.42;100200.38;1606124;89;21242;-65
2021/01/23 04:18:35;;;;;;;19.70;9.70;;;;;;;4.66;69.49;100202.55;1612899;89;21211;-65
2021/01/23 04:21:04;;;;;;;14.78;7.95;;;;;;;4.68;69.59;100201.27;1611755;88;21210;-65
2021/01/23 04:23:33;;;;;;;11.85;6.90;;;;;;;4.69;69.80;100196.06;1607736;88;21713;-66
2021/01/23 04:26:02;;;;;;;13.00;7.87;;;;;;;4.72;70.13;100192.17;1605714;89;21219;-65
2021/01/23 04:28:30;;;;;;;13.32;9.50;;;;;;;4.76;70.78;100187.44;1613175;88;21163;-65
2021/01/23 04:30:57;;;;;;;12.40;8.18;;;;;;;5.00;69.99;100178.08;1616063;88;21620;-65
2021/01/23 04:33:25;;;;;;;13.98;8.45;;;;;;;5.00;70.16;100178.48;1608134;89;21186;-64
2021/01/23 04:35:53;;;;;;;14.47;9.08;;;;;;;5.03;70.10;100177.20;1608147;89;21194;-64
2021/01/23 04:38:20;;;;;;;17.55;9.38;;;;;;;5.08;69.98;100182.03;1616017;88;21167;-65
2021/01/23 04:40:48;;;;;;;12.15;8.13;;;;;;;5.04;70.10;100178.95;1615554;88;21147;-65
2021/01/23 04:43:15;;;;;;;14.75;9.00;;;;;;;5.04;70.17;100185.06;1633640;88;21809;-65
2021/01/23 04:45:43;;;;;;;14.58;9.75;;;;;;;5.07;70.23;100184.20;1608320;89;21375;-66
2021/01/23 04:48:10;;;;;;;12.82;8.68;;;;;;;5.09;70.30;100184.19;1619432;88;21211;-65
2021/01/23 04:50:38;;;;;;;14.15;8.85;;;;;;;5.15;70.22;100182.94;1626744;88;21233;-65
2021/01/23 04:53:06;;;;;;;14.10;9.90;;;;;;;5.13;70.28;100185.96;1634192;88;21140;-65
2021/01/23 04:55:33;;;;;;;13.90;9.65;;;;;;;5.15;70.37;100182.94;1607775;88;21213;-65
2021/01/23 04:58:01;;;;;;;16.60;9.13;;;;;;;5.20;70.35;100183.84;1619215;88;21234;-65
2021/01/23 05:00:30;;;;;;;13.48;9.48;;;;;;;5.23;70.38;100181.70;1622343;88;21183;-65
2021/01/23 05:03:07;;;;;;;12.73;9.33;;;;;;;5.27;70.29;100179.55;1635806;88;21255;-65
2021/01/23 05:05:35;;;;;;;16.80;10.18;;;;;;;5.26;70.30;100186.50;1626733;88;21614;-65
2021/01/23 05:08:11;;;;;;;14.68;9.20;;;;;;;5.27;70.33;100186.08;1614794;88;21170;-65
2021/01/23 05:10:41;;;;;;;15.13;9.10;;;;;;;5.28;70.21;100179.55;1621963;88;21163;-65
2021/01/23 05:13:16;;;;;;;14.30;8.63;;;;;;;5.26;70.09;100172.59;1610112;89;21321;-64
2021/01/23 05:15:45;;;;;;;16.93;9.03;;;;;;;5.24;70.03;100176.48;1668387;85;21217;-65
2021/01/23 05:18:14;;;;;;;12.80;8.95;;;;;;;5.22;70.10;100172.98;1630182;88;21340;-65
2021/01/23 05:20:48;;;;;;;13.40;9.05;;;;;;;5.20;70.06;100175.59;1663410;84;21177;-66
2021/01/23 05:23:27;;;;;;;13.78;9.45;;;;;;;5.18;69.96;100175.13;1662884;86;21680;-65
2021/01/23 05:25:59;;;;;;;12.73;8.18;;;;;;;5.13;70.04;100179.02;1684417;85;21641;-65
2021/01/23 05:28:39;;;;;;;17.35;10.85;;;;;;;5.11;70.11;100174.23;1669456;85;21613;-65
2021/01/23 05:31:15;;;;;;;13.75;8.53;;;;;;;5.13;70.13;100183.36;1663011;86;21153;-65
2021/01/23 05:33:43;;;;;;;15.53;8.50;;;;;;;5.15;70.14;100176.41;1671301;85;21180;-65
2021/01/23 05:36:12;;;;;;;13.98;8.65;;;;;;;5.15;70.14;100182.94;1690598;85;21172;-65
2021/01/23 05:38:45;;;;;;;17.15;9.23;;;;;;;5.18;70.20;100183.84;1671326;85;21334;-66
2021/01/23 05:41:14;;;;;;;11.60;7.53;;;;;;;5.20;70.23;100187.34;1662995;86;21195;-63
2021/01/23 05:43:51;;;;;;;15.00;9.88;;;;;;;5.22;70.21;100184.73;1668535;85;21330;-63
2021/01/23 05:46:31;;;;;;;13.62;9.05;;;;;;;5.27;70.04;100179.11;1630362;88;21184;-63
2021/01/23 05:48:59;;;;;;;11.03;8.05;;;;;;;5.30;69.93;100170.44;1637766;87;21353;-64
2021/01/23 05:51:27;;;;;;;12.10;8.55;;;;;;;5.23;70.09;100177.34;1632163;88;21227;-65
2021/01/23 05:53:55;;;;;;;14.18;9.55;;;;;;;5.20;70.15;100174.70;1646696;87;21220;-67
2021/01/23 05:56:23;;;;;;;12.50;7.80;;;;;;;5.16;70.35;100180.35;1631756;87;21207;-65
2021/01/23 05:58:51;;;;;;;14.98;8.68;;;;;;;5.17;70.42;100176.88;1597497;89;21595;-66
2021/01/23 06:01:21;;;;;;;11.63;8.23;;;;;;;5.23;70.40;100182.56;1620596;87;21194;-66
2021/01/23 06:06:45;;;;;;;13.43;8.78;;;;;;;5.34;70.16;100186.12;1821853;77;22119;-64
2021/01/23 06:09:37;;;;;;;14.80;9.73;;;;;;;5.31;70.24;100182.18;1792489;80;21153;-65
2021/01/23 06:12:34;;;;;;;13.90;8.93;;;;;;;5.31;70.32;100186.09;1773915;80;21118;-66
2021/01/23 06:15:02;;;;;;;14.47;8.90;;;;;;;5.30;70.37;100183.05;1791203;80;21644;-66
2021/01/23 06:17:46;;;;;;;13.88;9.28;;;;;;;5.31;70.43;100184.79;1783000;80;21175;-66
2021/01/23 06:20:44;;;;;;;17.62;10.78;;;;;;;5.35;70.40;100186.97;1771886;80;21177;-67
2021/01/23 06:23:16;;;;;;;17.12;10.58;;;;;;;5.44;70.26;100180.51;1782355;80;21202;-68
2021/01/23 06:25:55;;;;;;;14.05;9.03;;;;;;;5.53;70.20;100181.42;1793365;80;21142;-67
2021/01/23 06:28:28;;;;;;;14.83;9.20;;;;;;;5.51;70.24;100182.74;1784471;80;21652;-67
2021/01/23 06:30:55;;;;;;;15.05;9.28;;;;;;;5.47;70.24;100187.05;1767840;80;21118;-67
2021/01/23 06:33:29;;;;;;;12.73;8.95;;;;;;;5.45;70.28;100185.31;1793058;80;21621;-69
2021/01/23 06:36:08;;;;;;;12.65;8.93;;;;;;;5.49;70.13;100179.25;1792990;80;21458;-65
2021/01/23 06:38:37;;;;;;;12.23;9.08;;;;;;;5.54;70.02;100179.26;1770175;80;21146;-66
2021/01/23 06:41:28;;;;;;;11.25;8.50;;;;;;;5.56;70.02;100181.00;1793513;80;21137;-67
2021/01/23 06:44:18;;;;;;;11.80;8.18;;;;;;;5.58;70.00;100177.11;1796147;80;21098;-67
2021/01/23 06:46:56;;;;;;;14.87;10.05;;;;;;;5.62;69.99;100180.17;1786979;80;21137;-67
2021/01/23 06:49:24;;;;;;;11.53;7.40;;;;;;;5.55;70.21;100177.09;1757013;81;21178;-67
2021/01/23 06:52:05;;;;;;;11.75;8.00;;;;;;;5.54;70.29;100174.89;1737287;82;21533;-67
2021/01/23 06:54:33;;;;;;;14.35;7.67;;;;;;;5.59;70.33;100180.16;1724302;82;21621;-67
2021/01/23 06:57:02;;;;;;;12.98;8.08;;;;;;;5.63;70.54;100171.03;1721927;82;21154;-68
2021/01/23 06:59:32;;;;;;;13.58;8.85;;;;;;;5.68;70.90;100169.77;1720720;82;21660;-67
2021/01/23 07:02:13;;;;;;;15.27;10.90;;;;;;;5.80;70.84;100168.94;1706745;84;21163;-68
2021/01/23 07:04:45;;;;;;;15.18;10.30;;;;;;;5.90;70.66;100164.19;1724104;81;21592;-68
2021/01/23 07:07:14;;;;;;;13.85;9.28;;;;;;;5.98;70.61;100164.62;1684542;85;21179;-67
2021/01/23 07:09:50;;;;;;;13.72;9.23;;;;;;;6.08;70.54;100169.05;1769264;80;21272;-67
2021/01/23 07:12:37;;;;;;;11.57;8.43;;;;;;;6.18;70.56;100170.83;1790796;80;21102;-67
2021/01/23 07:15:14;;;;;;;13.40;10.53;;;;;;;6.30;70.50;100173.03;1736861;80;21228;-67
2021/01/23 07:17:45;;;;;;;12.63;9.78;;;;;;;6.39;70.25;100175.22;1743282;80;21103;-67
2021/01/23 07:20:16;;;;;;;12.78;8.50;;;;;;;6.48;70.15;100170.43;1756162;82;21193;-67
2021/01/23 07:22:45;;;;;;;12.80;8.93;;;;;;;6.54;70.18;100169.13;1714057;83;21276;-68
2021/01/23 07:25:16;;;;;;;11.38;8.58;;;;;;;6.61;70.10;100171.34;1724842;82;21296;-68
2021/01/23 07:27:44;;;;;;;12.70;8.58;;;;;;;6.67;70.13;100174.38;1774034;80;21106;-67
2021/01/23 07:30:17;;;;;;;12.37;8.73;;;;;;;6.76;70.11;100174.81;1766180;80;21136;-66
2021/01/23 07:32:46;;;;;;;12.73;8.45;;;;;;;6.80;69.80;100173.94;1764032;80;21627;-67
2021/01/23 07:35:15;;;;;;;13.15;8.95;;;;;;;6.84;69.98;100170.45;1749808;82;21187;-66
2021/01/23 07:37:55;;;;;;;13.53;9.15;;;;;;;6.97;70.05;100174.81;1706998;83;21179;-68
2021/01/23 07:40:26;;;;;;;13.00;9.30;;;;;;;7.05;69.63;100173.48;1688749;83;21603;-66
2021/01/23 07:42:57;;;;;;;14.40;11.10;;;;;;;7.13;69.68;100182.63;1712103;82;21578;-66
2021/01/23 07:45:25;;;;;;;17.20;12.53;;;;;;;7.22;69.62;100173.46;1707274;83;21637;-66
2021/01/23 07:48:03;;;;;;;15.50;11.35;;;;;;;7.38;69.77;100169.06;1697856;83;21174;-63
2021/01/23 07:50:44;;;;;;;16.90;11.18;;;;;;;7.53;69.60;100164.66;1733689;82;21191;-63
2021/01/23 07:53:17;;;;;;;13.80;10.45;;;;;;;7.66;70.05;100162.44;1726429;83;21127;-66
2021/01/23 07:55:45;;;;;;;13.68;9.30;;;;;;;7.84;69.58;100157.98;1708863;83;21161;-62
2021/01/23 07:58:13;;;;;;;13.75;10.08;;;;;;;7.96;69.40;100158.36;1750064;81;21095;-63
2021/01/23 08:00:42;;;;;;;35.43;21.23;;;;;;;8.10;69.11;100162.24;1731694;82;21143;-66
2021/01/23 08:03:09;;;;;;;74.37;39.20;;;;;;;8.17;69.22;100164.80;1726198;83;21182;-63
2021/01/23 08:05:53;;;;;;;46.30;28.70;;;;;;;8.31;69.14;100158.62;1723122;82;21099;-62
2021/01/23 08:08:35;;;;;;;26.10;17.57;;;;;;;8.46;68.86;100158.95;1720915;82;21087;-64
2021/01/23 08:11:03;;;;;;;;;;;;;;;8.59;68.01;100160.64;1742750;82;21637;-62
2021/01/23 08:13:33;;;;;;;14.90;11.00;;;;;;;8.65;68.40;100155.77;1754880;80;20193;-65
2021/01/23 08:16:14;;;;;;;16.32;10.85;;;;;;;8.71;67.90;100156.16;1786422;80;21142;-62
2021/01/23 08:18:45;;;;;;;12.68;10.25;;;;;;;8.86;68.11;100155.15;1736241;82;21550;-63
2021/01/23 08:21:20;;;;;;;13.70;10.18;;;;;;;8.98;67.31;100150.25;1726107;82;21159;-66
2021/01/23 08:23:47;;;;;;;11.15;8.48;;;;;;;9.11;67.37;100155.79;1752301;80;21549;-63
2021/01/23 08:26:18;;;;;;;12.65;9.13;;;;;;;9.26;67.03;100153.91;1741257;81;21661;-65
2021/01/23 08:28:47;;;;;;;11.93;7.97;;;;;;;9.29;65.44;100154.73;1741016;82;21138;-63
2021/01/23 08:31:23;;;;;;;11.35;8.40;;;;;;;9.18;65.70;100153.53;1753074;82;21191;-63
2021/01/23 08:33:56;;;;;;;9.68;7.30;;;;;;;9.15;66.11;100152.71;1754522;80;21138;-66
2021/01/23 08:36:28;;;;;;;12.18;8.65;;;;;;;9.17;65.84;100151.80;1750762;82;21167;-67
2021/01/23 08:41:39;;;;;;;11.33;8.70;;;;;;;9.20;65.76;100149.14;1817479;77;22132;-61
2021/01/23 08:44:06;;;;;;;11.73;9.05;;;;;;;9.22;65.45;100145.20;1778434;80;21578;-66
2021/01/23 08:46:35;;;;;;;11.70;8.53;;;;;;;9.22;64.72;100142.58;1745508;81;21111;-66
2021/01/23 08:49:02;;;;;;;14.15;10.35;;;;;;;9.35;65.95;100145.47;1745780;81;21603;-66
2021/01/23 08:51:33;;;;;;;15.20;10.90;;;;;;;9.47;65.72;100140.55;1743843;81;21174;-66
2021/01/23 08:54:00;;;;;;;12.65;9.68;;;;;;;9.71;65.93;100133.70;1684769;84;21167;-64
2021/01/23 08:56:28;;;;;;;14.25;9.95;;;;;;;9.86;64.64;100134.80;1698645;84;21157;-66
2021/01/23 08:58:55;;;;;;;16.57;11.10;;;;;;;9.86;64.81;100138.74;1713337;83;21153;-64
2021/01/23 09:01:24;;;;;;;17.42;10.45;;;;;;;9.90;65.32;100130.39;1698991;83;21221;-64
2021/01/23 09:03:52;;;;;;;14.47;10.75;;;;;;;10.11;65.14;100130.08;1709897;83;21169;-68
2021/01/23 09:06:19;;;;;;;11.90;9.03;;;;;;;10.20;64.43;100131.69;1703712;83;21661;-68
2021/01/23 09:08:47;;;;;;;15.10;10.38;;;;;;;10.18;63.36;100135.25;1720842;83;21566;-68
2021/01/23 09:11:15;;;;;;;14.85;11.75;;;;;;;10.04;63.78;100138.94;1708951;83;21203;-67
2021/01/23 09:13:43;;;;;;;17.35;13.40;;;;;;;9.95;64.08;100141.25;1696908;84;21558;-65
2021/01/23 09:16:10;;;;;;;20.82;15.20;;;;;;;9.89;64.38;100130.81;1701756;83;21312;-67
2021/01/23 09:18:38;;;;;;;23.50;15.15;;;;;;;9.89;64.64;100130.81;1717131;83;21182;-67
2021/01/23 09:21:06;;;;;;;18.07;12.85;;;;;;;9.98;65.16;100127.19;1699722;83;21154;-67
2021/01/23 09:23:34;;;;;;;14.90;10.93;;;;;;;10.18;66.10;100131.30;1725978;83;21175;-67
2021/01/23 09:26:02;;;;;;;17.73;11.75;;;;;;;10.38;65.60;100129.22;1725810;83;21541;-67
2021/01/23 09:28:30;;;;;;;15.70;10.18;;;;;;;10.59;66.17;100127.19;1713371;83;21612;-65
2021/01/23 09:30:59;;;;;;;17.20;10.88;;;;;;;10.79;65.27;100125.54;1713659;84;21333;-66
2021/01/23 09:33:26;;;;;;;16.95;12.00;;;;;;;10.84;64.04;100122.81;1714879;84;21186;-67
2021/01/23 09:35:55;;;;;;;13.10;10.35;;;;;;;10.74;63.89;100120.80;1714692;84;21169;-65
2021/01/23 09:38:23;;;;;;;14.63;10.95;;;;;;;10.74;63.40;100127.84;1728309;83;21182;-67
2021/01/23 09:40:51;;;;;;;14.93;10.75;;;;;;;10.68;63.39;100113.88;1688687;84;21217;-65
2021/01/23 09:43:19;;;;;;;13.15;10.28;;;;;;;10.62;63.35;100119.25;1671425;86;21204;-67
2021/01/23 09:45:49;;;;;;;14.18;9.98;;;;;;;10.69;63.80;100114.73;1695183;84;21164;-67
2021/01/23 09:48:19;;;;;;;12.90;9.38;;;;;;;10.81;64.06;100118.95;1735998;82;21123;-67
2021/01/23 09:50:47;;;;;;;9.73;7.70;;;;;;;10.94;63.01;100122.22;1734341;82;21127;-66
2021/01/23 09:53:15;;;;;;;12.10;8.33;;;;;;;10.88;62.12;100121.02;1731012;82;21166;-65
2021/01/23 09:55:43;;;;;;;10.05;7.50;;;;;;;10.64;61.91;100119.20;1733598;82;21583;-67
2021/01/23 09:58:11;;;;;;;10.60;7.85;;;;;;;10.34;62.42;100117.04;1719734;82;21910;-66
2021/01/23 10:00:39;;;;;;;10.32;7.47;;;;;;;10.38;63.39;100116.53;1730551;81;21156;-64
2021/01/23 10:03:07;;;;;;;10.80;7.50;;;;;;;10.47;63.67;100114.22;1748139;81;21104;-66
2021/01/23 10:05:34;;;;;;;10.23;7.60;;;;;;;10.61;63.64;100110.92;1745725;82;21135;-66
2021/01/23 10:08:02;;;;;;;12.55;8.60;;;;;;;10.75;64.18;100105.88;1748168;81;21127;-65
2021/01/23 10:10:30;;;;;;;10.60;7.42;;;;;;;11.01;64.02;100099.69;1746036;81;21590;-66
2021/01/23 10:12:58;;;;;;;13.03;8.25;;;;;;;11.31;64.19;100099.98;1711473;82;21260;-65
2021/01/23 10:15:25;;;;;;;12.50;7.92;;;;;;;11.46;64.23;100092.68;1708150;83;21184;-67
2021/01/23 10:17:53;;;;;;;9.38;7.00;;;;;;;11.58;63.93;100092.87;1712346;82;21132;-66
2021/01/23 10:20:21;;;;;;;15.20;7.00;;;;;;;11.75;63.22;100085.91;1744133;82;21162;-65
2021/01/23 10:22:49;;;;;;;12.50;7.45;;;;;;;11.74;62.61;100074.95;1748350;82;21151;-64
2021/01/23 10:25:18;;;;;;;10.23;7.67;;;;;;;11.74;63.07;100074.52;1738823;82;21164;-64
2021/01/23 10:27:47;;;;;;;9.65;7.03;;;;;;;11.74;63.27;100077.58;1739389;82;21161;-66
2021/01/23 10:30:16;;;;;;;11.35;7.15;;;;;;;11.83;63.28;100076.07;1745381;82;21591;-64
2021/01/23 10:32:44;;;;;;;12.13;7.87;;;;;;;11.94;63.24;100075.81;1748168;82;21151;-64
2021/01/23 10:35:13;;;;;;;9.45;7.00;;;;;;;12.06;63.14;100070.77;1738853;81;21439;-64
2021/01/23 10:37:40;;;;;;;9.43;7.62;;;;;;;12.17;62.48;100075.78;1683225;85;21158;-64
2021/01/23 10:40:10;;;;;;;10.13;8.00;;;;;;;12.22;62.32;100067.75;1748741;81;21178;-66
2021/01/23 10:42:38;;;;;;;9.90;8.15;;;;;;;12.31;62.54;100056.97;1761545;81;21170;-64
2021/01/23 10:45:08;;;;;;;11.20;7.67;;;;;;;12.46;62.34;100062.31;1761508;80;21342;-65
2021/01/23 10:47:36;;;;;;;11.33;8.63;;;;;;;12.58;62.37;100055.88;1749511;81;21697;-66
2021/01/23 10:50:05;;;;;;;11.30;8.78;;;;;;;12.64;62.05;100055.26;1731342;82;21574;-67
2021/01/23 10:52:34;;;;;;;11.20;8.70;;;;;;;12.75;61.51;100055.44;1731620;83;21167;-64
2021/01/23 10:55:05;;;;;;;10.53;8.60;;;;;;;12.85;61.19;100051.62;1734603;81;21162;-65
2021/01/23 10:57:34;;;;;;;14.25;9.80;;;;;;;12.84;60.53;100050.35;1758112;81;21139;-66
2021/01/23 11:00:04;;;;;;;12.70;9.68;;;;;;;12.78;61.67;100057.53;1754084;81;21136;-66
2021/01/23 11:02:33;;;;;;;11.95;9.43;;;;;;;12.73;60.71;100058.10;1731616;82;21132;-67
2021/01/23 11:05:00;;;;;;;14.28;11.12;;;;;;;12.76;60.44;100062.45;1728235;81;21706;-66
2021/01/23 11:07:42;;;;;;;12.47;9.88;;;;;;;12.60;59.39;100075.16;1741353;81;21514;-68
2021/01/23 11:10:14;;;;;;;12.47;9.38;;;;;;;12.46;59.90;100059.68;1756817;80;21183;-68
2021/01/23 11:12:42;;;;;;;13.90;10.63;;;;;;;12.51;60.41;100059.58;1727080;83;21204;-68
2021/01/23 11:15:11;;;;;;;14.05;10.45;;;;;;;12.48;59.45;100053.91;1750775;80;21126;-67
2021/01/23 11:17:39;;;;;;;14.50;11.37;;;;;;;12.38;58.89;100048.00;1757046;82;21307;-67
2021/01/23 11:20:30;;;;;;;15.15;10.95;;;;;;;12.25;59.04;100050.52;1757007;80;21573;-67
2021/01/23 11:22:57;;;;;;;14.68;11.12;;;;;;;12.08;59.22;100061.48;1760697;81;21107;-68
2021/01/23 11:25:27;;;;;;;16.35;11.73;;;;;;;11.95;59.39;100063.52;1724583;81;21326;-67
2021/01/23 11:27:55;;;;;;;16.85;12.25;;;;;;;11.88;59.27;100058.38;1730839;83;21150;-68
2021/01/23 11:30:25;;;;;;;18.05;11.97;;;;;;;11.79;59.19;100057.26;1703242;83;21627;-67
2021/01/23 11:32:52;;;;;;;18.12;12.43;;;;;;;11.67;59.28;100058.41;1731818;83;21122;-68
2021/01/23 11:35:20;;;;;;;17.62;13.22;;;;;;;11.56;59.52;100049.42;1733352;83;21182;-65
2021/01/23 11:37:49;;;;;;;19.98;13.13;;;;;;;11.47;59.86;100043.49;1733990;81;21142;-66
2021/01/23 11:40:17;;;;;;;18.25;13.20;;;;;;;11.39;59.79;100044.52;1721131;81;21196;-66
2021/01/23 11:42:44;;;;;;;17.80;12.37;;;;;;;11.37;59.79;100043.68;1735774;81;21149;-65
2021/01/23 11:45:14;;;;;;;19.05;12.90;;;;;;;11.26;60.07;100037.76;1677656;84;21185;-67